Time;durP1;ratioP1;P1;durP2;ratioP2;P2;SDS_P1;SDS_P2;PMS_P1;PMS_P2;Temp;Humidity;BMP_temperature;BMP_pressure;BME280_temperature;BME280_humidity;BME280_pressure;Samples;Min_cycle;Max_cycle;Signal;HPM_P1;HPM_P2
2022/10/10 00:01:08;;;;;;;1.60;1.23;;;;;;;;;;5023611;28;20209;-60
2022/10/10 00:03:35;;;;;;;0.90;0.90;;;;;;;;;;5024741;28;20322;-60
2022/10/10 00:06:02;;;;;;;1.30;1.20;;;;;;;;;;5025932;28;20212;-60
2022/10/10 00:08:29;;;;;;;1.70;1.33;;;;;;;;;;5030470;28;20207;-60
2022/10/10 00:10:57;;;;;;;1.60;1.50;;;;;;;;;;5029830;28;20212;-60
2022/10/10 00:13:24;;;;;;;1.70;1.60;;;;;;;;;;5029927;28;20239;-60
2022/10/10 00:15:51;;;;;;;2.33;1.23;;;;;;;;;;5029729;28;20227;-60
2022/10/10 00:18:19;;;;;;;3.03;1.30;;;;;;;;;;5029950;28;20585;-60
2022/10/10 00:20:46;;;;;;;1.83;1.73;;;;;;;;;;5030354;28;20299;-60
2022/10/10 00:23:13;;;;;;;1.10;1.10;;;;;;;;;;5030960;28;20212;-60
2022/10/10 00:25:40;;;;;;;2.57;1.10;;;;;;;;;;5031834;28;20204;-60
2022/10/10 00:28:07;;;;;;;2.77;1.27;;;;;;;;;;5030326;28;20236;-60
2022/10/10 00:30:34;;;;;;;1.07;1.07;;;;;;;;;;5028873;28;20622;-60
2022/10/10 00:33:01;;;;;;;1.47;1.37;;;;;;;;;;5030970;28;20577;-60
2022/10/10 00:35:30;;;;;;;1.27;1.27;;;;;;;;;;5031431;28;20200;-59
2022/10/10 00:37:57;;;;;;;1.30;1.30;;;;;;;;;;5029282;28;20213;-60
2022/10/10 00:40:24;;;;;;;3.83;1.03;;;;;;;;;;5029848;28;20295;-60
2022/10/10 00:42:51;;;;;;;2.30;1.10;;;;;;;;;;5030181;28;20211;-60
2022/10/10 00:45:37;;;;;;;1.27;1.27;;;;;;;;;;5029915;28;20205;-60
2022/10/10 00:48:07;;;;;;;1.63;1.53;;;;;;;;;;5028959;28;20290;-60
2022/10/10 00:50:36;;;;;;;1.20;1.20;;;;;;;;;;5029567;28;20314;-60
2022/10/10 00:53:04;;;;;;;1.97;1.37;;;;;;;;;;5028839;28;20217;-60
2022/10/10 00:55:31;;;;;;;4.83;1.40;;;;;;;;;;5029198;28;20678;-60
2022/10/10 00:57:58;;;;;;;1.10;1.10;;;;;;;;;;5031134;28;20215;-59
2022/10/10 01:00:25;;;;;;;1.10;1.10;;;;;;;;;;5030384;28;20200;-60
2022/10/10 01:02:52;;;;;;;1.03;1.00;;;;;;;;;;5029892;28;20327;-60
2022/10/10 01:05:19;;;;;;;1.30;1.30;;;;;;;;;;5030333;28;20212;-59
2022/10/10 01:07:48;;;;;;;2.23;0.83;;;;;;;;;;5030500;28;20215;-60
2022/10/10 01:10:17;;;;;;;1.47;1.33;;;;;;;;;;5030462;28;20201;-59
2022/10/10 01:12:50;;;;;;;1.33;1.10;;;;;;;;;;5023802;28;20236;-61
2022/10/10 01:15:21;;;;;;;0.90;0.90;;;;;;;;;;5030510;28;20204;-60
2022/10/10 01:17:53;;;;;;;1.43;1.33;;;;;;;;;;5029375;28;20200;-60
2022/10/10 01:20:35;;;;;;;2.30;1.50;;;;;;;;;;5030107;28;20219;-59
2022/10/10 01:23:12;;;;;;;3.13;1.20;;;;;;;;;;5027525;28;20211;-59
2022/10/10 01:25:45;;;;;;;1.40;1.40;;;;;;;;;;5028419;28;20204;-60
2022/10/10 01:28:22;;;;;;;1.37;1.27;;;;;;;;;;5027277;28;20259;-59
2022/10/10 01:30:50;;;;;;;1.93;1.60;;;;;;;;;;5027948;28;20307;-60
2022/10/10 01:33:18;;;;;;;1.47;1.40;;;;;;;;;;5028197;28;20224;-59
2022/10/10 01:35:51;;;;;;;1.57;1.47;;;;;;;;;;5029036;28;20204;-60
2022/10/10 01:38:23;;;;;;;1.37;1.37;;;;;;;;;;5026911;28;20213;-60
2022/10/10 01:40:53;;;;;;;2.13;1.20;;;;;;;;;;5027031;28;20479;-60
2022/10/10 01:43:22;;;;;;;5.70;1.60;;;;;;;;;;5027576;28;20192;-60
2022/10/10 01:45:50;;;;;;;1.50;1.40;;;;;;;;;;5027195;28;20216;-60
2022/10/10 01:48:19;;;;;;;1.50;1.40;;;;;;;;;;5027981;28;20211;-60
2022/10/10 01:50:58;;;;;;;1.50;1.40;;;;;;;;;;5027504;28;20204;-59
2022/10/10 01:53:28;;;;;;;1.30;1.23;;;;;;;;;;5026793;28;20292;-59
2022/10/10 01:55:58;;;;;;;1.77;1.67;;;;;;;;;;5027771;28;20206;-59
2022/10/10 01:58:36;;;;;;;2.30;1.00;;;;;;;;;;5026239;28;20222;-59
2022/10/10 02:01:07;;;;;;;1.37;1.30;;;;;;;;;;5026288;28;20206;-59
2022/10/10 02:03:38;;;;;;;1.80;1.13;;;;;;;;;;5027066;28;20625;-59
2022/10/10 02:06:08;;;;;;;0.90;0.90;;;;;;;;;;5027523;28;20236;-59
2022/10/10 02:08:37;;;;;;;1.77;1.40;;;;;;;;;;5027564;28;20219;-60
2022/10/10 02:11:05;;;;;;;1.00;1.00;;;;;;;;;;5027325;28;20204;-59
2022/10/10 02:13:37;;;;;;;1.83;1.60;;;;;;;;;;5026891;28;20220;-60
2022/10/10 02:16:06;;;;;;;2.83;1.27;;;;;;;;;;5026664;28;20868;-62
2022/10/10 02:18:35;;;;;;;1.50;1.40;;;;;;;;;;5026291;28;20200;-60
2022/10/10 02:21:03;;;;;;;1.53;1.20;;;;;;;;;;5027313;28;20201;-60
2022/10/10 02:23:34;;;;;;;1.37;1.37;;;;;;;;;;5027789;28;20204;-60
2022/10/10 02:26:01;;;;;;;2.40;1.40;;;;;;;;;;5027693;28;20216;-60
2022/10/10 02:28:32;;;;;;;1.50;1.40;;;;;;;;;;5029064;28;20204;-59
2022/10/10 02:31:01;;;;;;;2.13;1.77;;;;;;;;;;5028281;28;20208;-59
2022/10/10 02:33:32;;;;;;;1.40;1.30;;;;;;;;;;5026786;28;20224;-59
2022/10/10 02:36:01;;;;;;;1.57;1.47;;;;;;;;;;5025728;28;20241;-59
2022/10/10 02:38:28;;;;;;;1.57;1.47;;;;;;;;;;5026878;28;20270;-59
2022/10/10 02:40:57;;;;;;;0.80;0.80;;;;;;;;;;5027655;28;20204;-59
2022/10/10 02:43:24;;;;;;;2.33;0.97;;;;;;;;;;5028290;28;20207;-60
2022/10/10 02:45:51;;;;;;;2.80;1.70;;;;;;;;;;5029174;28;20204;-59
2022/10/10 02:48:19;;;;;;;3.70;1.40;;;;;;;;;;5027697;28;20209;-59
2022/10/10 02:50:46;;;;;;;1.17;1.17;;;;;;;;;;5026932;28;20234;-60
2022/10/10 02:53:13;;;;;;;1.57;1.30;;;;;;;;;;5027573;28;20231;-60
2022/10/10 02:55:40;;;;;;;1.00;1.00;;;;;;;;;;5027447;28;20203;-59
2022/10/10 02:58:07;;;;;;;1.13;1.13;;;;;;;;;;5027841;28;20209;-59
2022/10/10 03:00:34;;;;;;;1.23;1.00;;;;;;;;;;5027134;28;20216;-60
2022/10/10 03:03:01;;;;;;;1.13;1.10;;;;;;;;;;5025635;28;20229;-61
2022/10/10 03:05:30;;;;;;;1.37;1.07;;;;;;;;;;5027369;28;20225;-59
2022/10/10 03:07:57;;;;;;;1.00;1.00;;;;;;;;;;5027354;28;20292;-59
2022/10/10 03:10:24;;;;;;;1.47;1.13;;;;;;;;;;5026661;28;20204;-59
2022/10/10 03:12:51;;;;;;;1.27;1.27;;;;;;;;;;5026226;28;20262;-60
2022/10/10 03:15:18;;;;;;;1.53;1.30;;;;;;;;;;5026390;28;20208;-60
2022/10/10 03:17:45;;;;;;;1.40;1.30;;;;;;;;;;5026703;28;20200;-59
2022/10/10 03:20:12;;;;;;;1.07;1.07;;;;;;;;;;5026225;28;20212;-59
2022/10/10 03:22:41;;;;;;;1.90;1.33;;;;;;;;;;5026519;28;20299;-60
2022/10/10 03:25:08;;;;;;;2.83;1.37;;;;;;;;;;5025963;28;20204;-60
2022/10/10 03:27:35;;;;;;;3.07;1.13;;;;;;;;;;5026921;28;20236;-60
2022/10/10 03:30:02;;;;;;;2.13;1.20;;;;;;;;;;5027349;28;20204;-60
2022/10/10 03:32:29;;;;;;;1.53;1.40;;;;;;;;;;5026900;28;20212;-60
2022/10/10 03:34:56;;;;;;;1.23;1.13;;;;;;;;;;5025729;28;20681;-60
2022/10/10 03:37:23;;;;;;;1.60;1.50;;;;;;;;;;5026440;28;20690;-59
2022/10/10 03:39:51;;;;;;;1.23;1.10;;;;;;;;;;5025789;28;20287;-59
2022/10/10 03:42:19;;;;;;;8.33;1.20;;;;;;;;;;5025986;28;20208;-59
2022/10/10 03:44:46;;;;;;;1.17;1.17;;;;;;;;;;5026988;28;20204;-60
2022/10/10 03:47:13;;;;;;;1.10;1.10;;;;;;;;;;5027002;28;20215;-59
2022/10/10 03:49:40;;;;;;;1.20;1.20;;;;;;;;;;5026946;28;20227;-59
2022/10/10 03:52:07;;;;;;;1.80;1.50;;;;;;;;;;5026204;28;20659;-60
2022/10/10 03:54:34;;;;;;;1.57;1.27;;;;;;;;;;5026373;28;20912;-61
2022/10/10 03:57:02;;;;;;;2.33;1.43;;;;;;;;;;5025921;28;20201;-61
2022/10/10 03:59:29;;;;;;;1.30;1.17;;;;;;;;;;5026589;28;20211;-61
2022/10/10 04:01:57;;;;;;;1.53;1.37;;;;;;;;;;5024969;28;20211;-62
2022/10/10 04:04:24;;;;;;;1.30;1.10;;;;;;;;;;5026598;28;20220;-60
2022/10/10 04:06:51;;;;;;;1.47;1.43;;;;;;;;;;5025405;28;20212;-60
2022/10/10 04:09:18;;;;;;;7.60;1.57;;;;;;;;;;5025916;28;20209;-60
2022/10/10 04:11:48;;;;;;;1.00;1.00;;;;;;;;;;5024882;28;20200;-60
2022/10/10 04:14:16;;;;;;;1.20;1.20;;;;;;;;;;5023218;28;20220;-60
2022/10/10 04:16:43;;;;;;;1.27;1.27;;;;;;;;;;5026564;28;20207;-60
2022/10/10 04:19:10;;;;;;;1.40;1.30;;;;;;;;;;5027136;28;20204;-60
2022/10/10 04:21:37;;;;;;;1.43;1.30;;;;;;;;;;5026500;28;20211;-60
2022/10/10 04:24:05;;;;;;;1.40;1.30;;;;;;;;;;5025552;28;20211;-60
2022/10/10 04:26:32;;;;;;;1.20;1.20;;;;;;;;;;5027028;28;20232;-60
2022/10/10 04:28:59;;;;;;;1.33;1.23;;;;;;;;;;5027905;28;20208;-60
2022/10/10 04:31:27;;;;;;;3.20;1.33;;;;;;;;;;5027509;28;20254;-61
2022/10/10 04:33:54;;;;;;;2.53;1.53;;;;;;;;;;5026323;28;20224;-61
2022/10/10 04:36:22;;;;;;;2.00;1.50;;;;;;;;;;5026583;28;20216;-61
2022/10/10 04:38:50;;;;;;;1.40;1.10;;;;;;;;;;5027298;28;20200;-61
2022/10/10 04:41:17;;;;;;;1.63;1.53;;;;;;;;;;5026413;28;20208;-60
2022/10/10 04:43:44;;;;;;;1.10;1.10;;;;;;;;;;5026387;28;20205;-60
2022/10/10 04:49:09;;;;;;;0.90;0.90;;;;;;;;;;4994501;28;20215;-61
2022/10/10 04:51:37;;;;;;;1.47;1.03;;;;;;;;;;5026555;28;20197;-60
2022/10/10 04:54:04;;;;;;;1.03;1.03;;;;;;;;;;5030200;28;20289;-60
2022/10/10 04:56:31;;;;;;;1.43;1.30;;;;;;;;;;5028342;28;20207;-60
2022/10/10 04:58:58;;;;;;;1.13;1.13;;;;;;;;;;5027320;28;20219;-60
2022/10/10 05:01:25;;;;;;;1.37;1.33;;;;;;;;;;5030292;28;20201;-60
2022/10/10 05:03:52;;;;;;;1.30;1.30;;;;;;;;;;5030309;28;20224;-61
2022/10/10 05:06:21;;;;;;;1.20;1.20;;;;;;;;;;5029156;28;20204;-61
2022/10/10 05:08:48;;;;;;;1.90;1.70;;;;;;;;;;5029709;28;20208;-60
2022/10/10 05:11:15;;;;;;;1.13;1.13;;;;;;;;;;5030450;28;20196;-61
2022/10/10 05:13:42;;;;;;;1.47;1.03;;;;;;;;;;5030216;28;20216;-61
2022/10/10 05:16:09;;;;;;;6.17;1.40;;;;;;;;;;5029175;28;20299;-61
2022/10/10 05:18:37;;;;;;;3.03;2.07;;;;;;;;;;5030673;28;20437;-65
2022/10/10 05:21:05;;;;;;;1.17;1.17;;;;;;;;;;5030583;28;20231;-60
2022/10/10 05:23:34;;;;;;;1.67;1.57;;;;;;;;;;5030601;28;20209;-60
2022/10/10 05:26:01;;;;;;;7.60;2.13;;;;;;;;;;5028023;28;20634;-61
2022/10/10 05:28:28;;;;;;;1.50;1.40;;;;;;;;;;5027749;28;20295;-60
2022/10/10 05:30:55;;;;;;;1.90;1.80;;;;;;;;;;5030936;28;20942;-59
2022/10/10 05:33:22;;;;;;;2.20;2.00;;;;;;;;;;5029158;28;20207;-59
2022/10/10 05:35:49;;;;;;;1.50;1.40;;;;;;;;;;5030181;28;20325;-59
2022/10/10 05:38:16;;;;;;;1.80;1.33;;;;;;;;;;5030529;28;20212;-60
2022/10/10 05:40:45;;;;;;;4.90;1.50;;;;;;;;;;5030409;28;20560;-59
2022/10/10 05:43:12;;;;;;;1.37;1.37;;;;;;;;;;5030890;28;20208;-60
2022/10/10 05:45:39;;;;;;;1.33;1.30;;;;;;;;;;5030327;28;20212;-60
2022/10/10 05:48:06;;;;;;;1.37;1.37;;;;;;;;;;5029981;28;20203;-59
2022/10/10 05:50:34;;;;;;;2.67;1.60;;;;;;;;;;5029973;28;20219;-60
2022/10/10 05:53:02;;;;;;;2.17;1.30;;;;;;;;;;5029376;28;20207;-60
2022/10/10 05:55:29;;;;;;;5.50;1.63;;;;;;;;;;5030144;28;20228;-60
2022/10/10 05:57:57;;;;;;;2.60;1.40;;;;;;;;;;5030283;28;20220;-60
2022/10/10 06:00:24;;;;;;;1.47;1.37;;;;;;;;;;5029925;28;20226;-60
2022/10/10 06:02:51;;;;;;;4.53;2.03;;;;;;;;;;5029735;28;20239;-59
2022/10/10 06:05:19;;;;;;;1.60;1.50;;;;;;;;;;5028874;28;20574;-60
2022/10/10 06:07:46;;;;;;;3.77;2.03;;;;;;;;;;5030000;28;20285;-59
2022/10/10 06:10:13;;;;;;;2.33;2.13;;;;;;;;;;5029889;28;20212;-58
2022/10/10 06:12:40;;;;;;;2.10;1.90;;;;;;;;;;5029280;28;20207;-59
2022/10/10 06:15:09;;;;;;;1.27;1.27;;;;;;;;;;5029631;28;20240;-59
2022/10/10 06:17:36;;;;;;;1.90;1.47;;;;;;;;;;5029252;28;20205;-59
2022/10/10 06:20:03;;;;;;;1.50;1.40;;;;;;;;;;5029490;28;20681;-59
2022/10/10 06:22:30;;;;;;;1.13;1.13;;;;;;;;;;5029545;28;20781;-59
2022/10/10 06:24:57;;;;;;;2.87;1.57;;;;;;;;;;5028379;28;20235;-60
2022/10/10 06:27:24;;;;;;;1.47;1.23;;;;;;;;;;5012839;28;20244;-59
2022/10/10 06:29:51;;;;;;;2.77;1.77;;;;;;;;;;5009857;28;20637;-59
2022/10/10 06:32:20;;;;;;;1.60;1.50;;;;;;;;;;5009775;28;20212;-59
2022/10/10 06:34:47;;;;;;;1.60;1.50;;;;;;;;;;5012366;28;20591;-59
2022/10/10 06:37:14;;;;;;;1.87;1.87;;;;;;;;;;5027184;28;20614;-60
2022/10/10 06:39:41;;;;;;;1.70;1.60;;;;;;;;;;5029571;28;20208;-60
2022/10/10 06:42:08;;;;;;;2.10;2.00;;;;;;;;;;5029679;28;20208;-60
2022/10/10 06:44:35;;;;;;;1.47;1.37;;;;;;;;;;5029561;28;20219;-59
2022/10/10 06:47:02;;;;;;;1.50;1.50;;;;;;;;;;5029097;28;20204;-60
2022/10/10 06:49:31;;;;;;;1.77;1.67;;;;;;;;;;5029492;28;20565;-60
2022/10/10 06:51:58;;;;;;;1.50;1.40;;;;;;;;;;5029235;28;20220;-59
2022/10/10 06:54:25;;;;;;;1.93;1.83;;;;;;;;;;5029304;28;20232;-60
2022/10/10 06:56:52;;;;;;;3.97;1.80;;;;;;;;;;5029485;28;20302;-61
2022/10/10 06:59:19;;;;;;;2.20;1.70;;;;;;;;;;5025806;28;20444;-61
2022/10/10 07:01:46;;;;;;;1.93;1.80;;;;;;;;;;5028973;28;20223;-59
2022/10/10 07:04:13;;;;;;;1.70;1.67;;;;;;;;;;5028905;28;20247;-59
2022/10/10 07:06:42;;;;;;;7.53;1.77;;;;;;;;;;5028604;28;20205;-59
2022/10/10 07:09:09;;;;;;;1.93;1.83;;;;;;;;;;5027485;28;20209;-59
2022/10/10 07:11:36;;;;;;;1.80;1.70;;;;;;;;;;5024798;28;20215;-59
2022/10/10 07:14:03;;;;;;;1.60;1.50;;;;;;;;;;5024174;28;20220;-60
2022/10/10 07:16:32;;;;;;;2.03;1.90;;;;;;;;;;5024073;28;20570;-60
2022/10/10 07:18:59;;;;;;;3.43;2.10;;;;;;;;;;5020907;28;20234;-60
2022/10/10 07:21:27;;;;;;;3.00;1.90;;;;;;;;;;5028867;28;20215;-59
2022/10/10 07:23:55;;;;;;;2.43;2.33;;;;;;;;;;5028357;28;20224;-60
2022/10/10 07:26:25;;;;;;;2.40;2.30;;;;;;;;;;5028525;28;20236;-59
2022/10/10 07:28:53;;;;;;;4.43;2.20;;;;;;;;;;5024898;28;20397;-60
2022/10/10 07:31:20;;;;;;;2.97;2.60;;;;;;;;;;5019222;28;20205;-60
2022/10/10 07:33:49;;;;;;;3.10;2.80;;;;;;;;;;5019045;28;20922;-60
2022/10/10 07:36:16;;;;;;;4.10;3.70;;;;;;;;;;5019953;28;20217;-60
2022/10/10 07:38:43;;;;;;;3.57;3.27;;;;;;;;;;5019454;28;20662;-59
2022/10/10 07:41:13;;;;;;;4.30;2.90;;;;;;;;;;5018497;28;20212;-60
2022/10/10 07:43:40;;;;;;;3.03;2.53;;;;;;;;;;5018347;28;20225;-60
2022/10/10 07:46:14;;;;;;;3.93;2.87;;;;;;;;;;5020568;28;20192;-60
2022/10/10 07:48:41;;;;;;;2.53;2.27;;;;;;;;;;5017842;28;20225;-60
2022/10/10 07:51:08;;;;;;;3.17;2.23;;;;;;;;;;5018989;28;20216;-60
2022/10/10 07:53:36;;;;;;;2.23;2.13;;;;;;;;;;5020483;28;20215;-60
2022/10/10 07:56:04;;;;;;;2.87;2.60;;;;;;;;;;5026669;28;20239;-60
2022/10/10 07:58:33;;;;;;;2.57;2.20;;;;;;;;;;5026822;28;20215;-60
2022/10/10 08:01:04;;;;;;;3.93;2.60;;;;;;;;;;5027082;28;20208;-59
2022/10/10 08:03:31;;;;;;;4.13;2.70;;;;;;;;;;5027018;28;20231;-59
2022/10/10 08:05:58;;;;;;;2.90;2.27;;;;;;;;;;5027439;28;20208;-60
2022/10/10 08:08:25;;;;;;;4.13;2.50;;;;;;;;;;5026316;28;20201;-60
2022/10/10 08:10:52;;;;;;;5.40;2.47;;;;;;;;;;5027184;28;20208;-60
2022/10/10 08:13:19;;;;;;;3.53;2.07;;;;;;;;;;5027093;28;20783;-61
2022/10/10 08:15:50;;;;;;;3.23;2.07;;;;;;;;;;5027721;28;20229;-60
2022/10/10 08:18:17;;;;;;;2.43;2.33;;;;;;;;;;5027606;28;20224;-61
2022/10/10 08:20:44;;;;;;;2.97;2.70;;;;;;;;;;5027751;28;20228;-59
2022/10/10 08:23:12;;;;;;;2.67;2.47;;;;;;;;;;5027665;28;20314;-60
2022/10/10 08:25:39;;;;;;;4.67;2.53;;;;;;;;;;5027834;28;20205;-61
2022/10/10 08:28:06;;;;;;;2.77;2.27;;;;;;;;;;5029666;28;20240;-61
2022/10/10 08:30:33;;;;;;;2.60;2.40;;;;;;;;;;5031729;28;20218;-60
2022/10/10 08:33:02;;;;;;;2.60;2.40;;;;;;;;;;5031269;28;20209;-61
2022/10/10 08:35:29;;;;;;;2.53;2.43;;;;;;;;;;5031915;28;20254;-59
2022/10/10 08:37:56;;;;;;;3.70;2.10;;;;;;;;;;5031200;28;20204;-61
2022/10/10 08:40:27;;;;;;;3.23;2.37;;;;;;;;;;5030968;28;20735;-61
2022/10/10 08:42:55;;;;;;;2.00;1.90;;;;;;;;;;5031106;28;20222;-61
2022/10/10 08:45:23;;;;;;;2.83;2.63;;;;;;;;;;5031493;28;20204;-61
2022/10/10 08:47:52;;;;;;;2.73;2.47;;;;;;;;;;5031082;28;20335;-61
2022/10/10 08:50:22;;;;;;;2.80;2.30;;;;;;;;;;5031281;28;20216;-61
2022/10/10 08:52:50;;;;;;;3.67;2.77;;;;;;;;;;5030663;28;20216;-60
2022/10/10 08:55:19;;;;;;;3.47;3.17;;;;;;;;;;5030440;28;20231;-61
2022/10/10 08:57:49;;;;;;;7.70;3.13;;;;;;;;;;5030417;28;20205;-61
2022/10/10 09:00:17;;;;;;;3.17;2.73;;;;;;;;;;5030832;28;20215;-61
2022/10/10 09:02:48;;;;;;;6.43;2.80;;;;;;;;;;5026699;28;20287;-60
2022/10/10 09:05:17;;;;;;;3.00;2.73;;;;;;;;;;5030543;28;20204;-61
2022/10/10 09:07:55;;;;;;;3.93;3.23;;;;;;;;;;5030476;28;20223;-60
2022/10/10 09:10:27;;;;;;;7.00;2.73;;;;;;;;;;5011029;28;20307;-61
2022/10/10 09:12:58;;;;;;;4.20;2.80;;;;;;;;;;5022539;28;20709;-60
2022/10/10 09:15:28;;;;;;;3.17;2.90;;;;;;;;;;5030192;28;20910;-61
2022/10/10 09:18:00;;;;;;;2.65;2.47;;;;;;;;;;5029902;28;20671;-61
2022/10/10 09:20:37;;;;;;;3.72;3.28;;;;;;;;;;5030754;28;20224;-61
2022/10/10 09:23:09;;;;;;;3.45;3.10;;;;;;;;;;5029610;28;20255;-61
2022/10/10 09:25:39;;;;;;;5.38;2.95;;;;;;;;;;5030224;28;20240;-61
2022/10/10 09:28:08;;;;;;;3.28;2.92;;;;;;;;;;5030195;28;20768;-62
2022/10/10 09:30:37;;;;;;;2.97;2.47;;;;;;;;;;5030048;28;20204;-63
2022/10/10 09:33:08;;;;;;;3.42;3.22;;;;;;;;;;5030412;28;20208;-61
2022/10/10 09:35:36;;;;;;;3.30;3.03;;;;;;;;;;5029955;28;20315;-61
2022/10/10 09:38:08;;;;;;;3.08;2.92;;;;;;;;;;5028463;28;20576;-62
2022/10/10 09:40:39;;;;;;;3.35;3.10;;;;;;;;;;5029219;28;20248;-62
2022/10/10 09:43:11;;;;;;;3.05;2.80;;;;;;;;;;5030293;28;20208;-60
2022/10/10 09:45:42;;;;;;;2.78;2.58;;;;;;;;;;5030380;28;20208;-59
2022/10/10 09:48:10;;;;;;;3.30;3.10;;;;;;;;;;5030002;28;20561;-59
2022/10/10 09:50:38;;;;;;;2.97;2.65;;;;;;;;;;5029591;28;20666;-60
2022/10/10 09:53:05;;;;;;;2.88;2.78;;;;;;;;;;5029248;28;20216;-60
2022/10/10 09:55:34;;;;;;;2.65;2.45;;;;;;;;;;5029545;28;20228;-60
2022/10/10 09:58:05;;;;;;;3.05;2.72;;;;;;;;;;5029180;28;20209;-61
2022/10/10 10:00:36;;;;;;;3.10;2.85;;;;;;;;;;5029194;28;20217;-60
2022/10/10 10:03:13;;;;;;;2.40;2.30;;;;;;;;;;5028400;28;20316;-61
2022/10/10 10:05:42;;;;;;;2.67;2.53;;;;;;;;;;5028463;28;20195;-61
2022/10/10 10:08:27;;;;;;;2.97;2.78;;;;;;;;;;5028540;28;20208;-60
2022/10/10 10:10:56;;;;;;;2.83;2.60;;;;;;;;;;5028763;28;20255;-61
2022/10/10 10:13:27;;;;;;;2.53;2.42;;;;;;;;;;5028175;28;20247;-61
2022/10/10 10:16:00;;;;;;;2.95;2.75;;;;;;;;;;5028525;28;20240;-60
2022/10/10 10:18:28;;;;;;;3.35;3.08;;;;;;;;;;5029342;28;20204;-61
2022/10/10 10:21:09;;;;;;;3.00;2.80;;;;;;;;;;5028930;28;20216;-61
2022/10/10 10:23:37;;;;;;;2.67;2.47;;;;;;;;;;5028588;28;20332;-61
2022/10/10 10:26:05;;;;;;;2.35;2.25;;;;;;;;;;5026900;28;20223;-61
2022/10/10 10:28:39;;;;;;;3.25;2.63;;;;;;;;;;5028719;28;20212;-61
2022/10/10 10:31:07;;;;;;;3.05;2.85;;;;;;;;;;5028708;28;20238;-61
2022/10/10 10:33:39;;;;;;;3.25;2.78;;;;;;;;;;5028565;28;20440;-61
2022/10/10 10:36:11;;;;;;;3.33;3.08;;;;;;;;;;5028239;28;20246;-58
2022/10/10 10:38:43;;;;;;;2.58;2.45;;;;;;;;;;5028216;28;20713;-61
2022/10/10 10:41:13;;;;;;;4.75;3.22;;;;;;;;;;5028629;28;20215;-61
2022/10/10 10:43:58;;;;;;;3.42;2.80;;;;;;;;;;5028469;28;20581;-62
2022/10/10 10:46:30;;;;;;;3.00;2.85;;;;;;;;;;5028466;28;20211;-61
2022/10/10 10:49:00;;;;;;;2.83;2.70;;;;;;;;;;5028139;28;20812;-60
2022/10/10 10:51:33;;;;;;;6.97;3.53;;;;;;;;;;5028204;28;20220;-60
2022/10/10 10:54:04;;;;;;;11.13;2.65;;;;;;;;;;5028206;28;20204;-62
2022/10/10 10:56:34;;;;;;;3.05;2.75;;;;;;;;;;5028093;28;20231;-60
2022/10/10 10:59:08;;;;;;;4.47;2.90;;;;;;;;;;5028248;28;20216;-60
2022/10/10 11:01:37;;;;;;;3.60;3.30;;;;;;;;;;5027927;28;20215;-60
2022/10/10 11:04:05;;;;;;;3.35;3.05;;;;;;;;;;5028123;28;20228;-64
2022/10/10 11:06:37;;;;;;;2.70;2.60;;;;;;;;;;5028134;28;20205;-59
2022/10/10 11:09:12;;;;;;;3.15;2.78;;;;;;;;;;5027616;28;20660;-61
2022/10/10 11:11:47;;;;;;;2.58;2.47;;;;;;;;;;5027311;28;20212;-64
2022/10/10 11:14:20;;;;;;;2.67;2.55;;;;;;;;;;5027695;28;20697;-63
2022/10/10 11:16:51;;;;;;;4.38;2.97;;;;;;;;;;5027292;28;20725;-63
2022/10/10 11:19:22;;;;;;;4.70;3.10;;;;;;;;;;5027253;28;20208;-63
2022/10/10 11:21:52;;;;;;;3.10;2.90;;;;;;;;;;5023649;28;20220;-60
2022/10/10 11:24:23;;;;;;;3.08;2.88;;;;;;;;;;5016423;28;20212;-60
2022/10/10 11:26:52;;;;;;;2.80;2.60;;;;;;;;;;5007124;28;20264;-60
2022/10/10 11:29:22;;;;;;;2.50;2.30;;;;;;;;;;5025665;28;20212;-60
2022/10/10 11:31:53;;;;;;;3.25;2.58;;;;;;;;;;5027318;28;20359;-61
2022/10/10 11:34:23;;;;;;;4.57;2.75;;;;;;;;;;5026799;28;20575;-60
2022/10/10 11:36:52;;;;;;;5.40;2.90;;;;;;;;;;5026512;28;20387;-60
2022/10/10 11:39:20;;;;;;;5.13;3.15;;;;;;;;;;5026866;28;20710;-60
2022/10/10 11:41:50;;;;;;;2.78;2.58;;;;;;;;;;5026555;28;20204;-61
2022/10/10 11:44:19;;;;;;;2.70;2.50;;;;;;;;;;5026614;28;20219;-61
2022/10/10 11:46:51;;;;;;;2.55;2.35;;;;;;;;;;5026781;28;20208;-60
2022/10/10 11:49:20;;;;;;;3.15;2.72;;;;;;;;;;5026706;28;20219;-60
2022/10/10 11:52:00;;;;;;;3.28;2.97;;;;;;;;;;5026862;28;20208;-61
2022/10/10 11:54:29;;;;;;;3.25;3.05;;;;;;;;;;5027474;28;20675;-60
2022/10/10 11:57:00;;;;;;;3.15;2.75;;;;;;;;;;5027364;28;20255;-61
2022/10/10 11:59:29;;;;;;;3.33;3.08;;;;;;;;;;5007861;28;20619;-60
2022/10/10 12:02:00;;;;;;;4.75;3.00;;;;;;;;;;5007111;28;20554;-61
2022/10/10 12:04:35;;;;;;;3.17;2.88;;;;;;;;;;5007713;28;20239;-60
2022/10/10 12:07:04;;;;;;;3.03;2.72;;;;;;;;;;5007524;28;20239;-60
2022/10/10 12:09:33;;;;;;;4.00;2.50;;;;;;;;;;5007349;28;20580;-60
2022/10/10 12:12:03;;;;;;;2.50;2.40;;;;;;;;;;5007861;28;20205;-61
2022/10/10 12:14:31;;;;;;;3.00;2.90;;;;;;;;;;5007726;28;20213;-60
2022/10/10 12:16:59;;;;;;;4.28;3.00;;;;;;;;;;5007765;28;20267;-61
2022/10/10 12:19:27;;;;;;;3.17;2.92;;;;;;;;;;5007769;28;20220;-62
2022/10/10 12:21:56;;;;;;;3.88;2.42;;;;;;;;;;5007527;28;20247;-61
2022/10/10 12:24:24;;;;;;;2.90;2.80;;;;;;;;;;5007363;28;20217;-61
2022/10/10 12:27:11;;;;;;;5.10;2.90;;;;;;;;;;5006952;28;20237;-61
2022/10/10 12:29:42;;;;;;;2.88;2.67;;;;;;;;;;5007425;28;20222;-61
2022/10/10 12:32:24;;;;;;;2.70;2.47;;;;;;;;;;5007491;28;20223;-61
2022/10/10 12:34:57;;;;;;;2.97;2.78;;;;;;;;;;5007532;28;20223;-61
2022/10/10 12:37:25;;;;;;;4.60;2.85;;;;;;;;;;5007038;28;20233;-61
2022/10/10 12:40:11;;;;;;;2.60;2.40;;;;;;;;;;5007439;28;20224;-61
2022/10/10 12:42:39;;;;;;;2.75;2.55;;;;;;;;;;5007387;28;20213;-60
2022/10/10 12:45:39;;;;;;;2.80;2.60;;;;;;;;;;5007416;28;20209;-61
2022/10/10 12:48:19;;;;;;;4.35;2.65;;;;;;;;;;5007183;28;20213;-60
2022/10/10 12:50:55;;;;;;;3.28;3.08;;;;;;;;;;5007186;28;20209;-60
2022/10/10 12:53:23;;;;;;;2.33;2.17;;;;;;;;;;5007151;28;20204;-60
2022/10/10 12:55:52;;;;;;;2.50;2.40;;;;;;;;;;5007209;28;20240;-61
2022/10/10 12:58:22;;;;;;;2.47;2.28;;;;;;;;;;5018277;28;20325;-60
2022/10/10 13:00:49;;;;;;;4.43;2.75;;;;;;;;;;5027009;28;20213;-61
2022/10/10 13:03:19;;;;;;;2.30;2.20;;;;;;;;;;5026709;28;20339;-62
2022/10/10 13:05:47;;;;;;;2.95;2.60;;;;;;;;;;5026958;28;20228;-60
2022/10/10 13:08:15;;;;;;;3.00;2.75;;;;;;;;;;5026822;28;20299;-61
2022/10/10 13:10:43;;;;;;;4.20;2.40;;;;;;;;;;5026851;28;20579;-61
2022/10/10 13:13:17;;;;;;;2.30;2.20;;;;;;;;;;5027419;28;20215;-60
2022/10/10 13:15:51;;;;;;;2.47;2.08;;;;;;;;;;5028041;28;20262;-60
2022/10/10 13:18:34;;;;;;;2.20;2.10;;;;;;;;;;5030038;28;20280;-61
2022/10/10 13:21:02;;;;;;;12.07;2.42;;;;;;;;;;5029787;28;20262;-60
2022/10/10 13:23:29;;;;;;;2.08;1.98;;;;;;;;;;5030194;28;20282;-60
2022/10/10 13:25:57;;;;;;;2.88;2.63;;;;;;;;;;5030227;28;20209;-60
2022/10/10 13:28:24;;;;;;;2.35;2.28;;;;;;;;;;5029888;28;20675;-60
2022/10/10 13:30:51;;;;;;;2.60;2.40;;;;;;;;;;5030255;28;20215;-61
2022/10/10 13:33:20;;;;;;;5.10;2.22;;;;;;;;;;5030060;28;20579;-59
2022/10/10 13:35:48;;;;;;;2.55;2.30;;;;;;;;;;5029854;28;20207;-60
2022/10/10 13:38:17;;;;;;;2.78;2.17;;;;;;;;;;5029843;28;20212;-61
2022/10/10 13:40:45;;;;;;;2.25;2.15;;;;;;;;;;5030197;28;20701;-60
2022/10/10 13:43:14;;;;;;;2.92;2.63;;;;;;;;;;5030193;28;20208;-61
2022/10/10 13:45:45;;;;;;;2.33;2.10;;;;;;;;;;5029961;28;20219;-66
2022/10/10 13:48:27;;;;;;;8.63;2.35;;;;;;;;;;5029913;28;20211;-62
2022/10/10 13:51:04;;;;;;;4.57;2.00;;;;;;;;;;5018114;28;20611;-60
2022/10/10 13:53:35;;;;;;;5.97;2.45;;;;;;;;;;5023477;28;20686;-60
2022/10/10 13:56:04;;;;;;;3.90;2.25;;;;;;;;;;5026765;28;20223;-60
2022/10/10 13:58:33;;;;;;;6.00;2.45;;;;;;;;;;5017713;28;20212;-61
2022/10/10 14:01:01;;;;;;;2.72;2.50;;;;;;;;;;5025001;28;20314;-60
2022/10/10 14:03:29;;;;;;;2.45;2.25;;;;;;;;;;5018985;28;20229;-61
2022/10/10 14:05:56;;;;;;;2.20;2.00;;;;;;;;;;5018852;28;20208;-61
2022/10/10 14:08:27;;;;;;;3.05;2.20;;;;;;;;;;5020444;28;20316;-60
2022/10/10 14:11:00;;;;;;;1.83;1.73;;;;;;;;;;5025984;28;20216;-60
2022/10/10 14:13:29;;;;;;;2.40;1.80;;;;;;;;;;5019278;28;20223;-61
2022/10/10 14:16:09;;;;;;;4.65;2.35;;;;;;;;;;5024918;28;20204;-60
2022/10/10 14:18:37;;;;;;;2.67;2.45;;;;;;;;;;5025124;28;20208;-60
2022/10/10 14:21:04;;;;;;;2.20;2.03;;;;;;;;;;5023900;28;20219;-61
2022/10/10 14:23:31;;;;;;;2.22;2.05;;;;;;;;;;5018863;28;20201;-61
2022/10/10 14:25:59;;;;;;;2.40;2.22;;;;;;;;;;5023876;28;20204;-61
2022/10/10 14:28:27;;;;;;;4.13;2.13;;;;;;;;;;5022909;28;20209;-61
2022/10/10 14:30:54;;;;;;;2.08;1.83;;;;;;;;;;5023073;28;20585;-61
2022/10/10 14:33:21;;;;;;;2.85;1.95;;;;;;;;;;5017434;28;20296;-62
2022/10/10 14:35:49;;;;;;;2.13;2.03;;;;;;;;;;5018928;28;20208;-59
2022/10/10 14:38:17;;;;;;;2.08;1.95;;;;;;;;;;5018931;28;20229;-59
2022/10/10 14:40:45;;;;;;;4.13;1.73;;;;;;;;;;5025089;28;20215;-62
2022/10/10 14:43:14;;;;;;;1.90;1.80;;;;;;;;;;5027295;28;20212;-59
2022/10/10 14:45:41;;;;;;;6.07;1.98;;;;;;;;;;5026793;28;20227;-61
2022/10/10 14:48:08;;;;;;;2.60;2.40;;;;;;;;;;5027426;28;20204;-59
2022/10/10 14:50:36;;;;;;;2.40;1.70;;;;;;;;;;5024478;28;20741;-59
2022/10/10 14:53:04;;;;;;;2.08;1.98;;;;;;;;;;5027298;28;20663;-59
2022/10/10 14:55:31;;;;;;;2.05;1.95;;;;;;;;;;5026945;28;20652;-59
2022/10/10 14:57:58;;;;;;;4.07;2.05;;;;;;;;;;5027041;28;20615;-59